Time;durP1;ratioP1;P1;durP2;ratioP2;P2;SDS_P1;SDS_P2;PMS_P1;PMS_P2;Temp;Humidity;BMP_temperature;BMP_pressure;BME280_temperature;BME280_humidity;BME280_pressure;Samples;Min_cycle;Max_cycle;Signal;HPM_P1;HPM_P2
2021/07/09 06:19:03;;;;;;;17.95;12.82;;;;;;;15.81;88.50;97771.72;5086666;27;1956492;-80
2021/07/09 06:21:28;;;;;;;14.57;12.35;;;;;;;16.46;85.50;97765.84;5128245;28;20050;-79
2021/07/09 06:23:54;;;;;;;16.15;13.05;;;;;;;16.90;83.36;97775.69;5093566;28;20469;-81
2021/07/09 06:26:21;;;;;;;16.52;13.77;;;;;;;17.10;81.32;97782.72;5090522;28;20021;-81
2021/07/09 06:28:46;;;;;;;18.42;13.57;;;;;;;17.27;81.30;97779.69;5103534;28;20038;-80
2021/07/09 06:31:12;;;;;;;17.25;14.43;;;;;;;17.33;80.73;97775.22;5072520;28;20035;-80
2021/07/09 06:33:38;;;;;;;15.43;12.40;;;;;;;17.40;81.50;97792.25;5073472;28;20106;-80
2021/07/09 06:36:03;;;;;;;14.82;12.77;;;;;;;17.59;80.75;97786.34;5076581;28;20398;-80
2021/07/09 06:38:29;;;;;;;16.23;12.30;;;;;;;17.66;79.59;97786.81;5089550;28;20043;-80
2021/07/09 06:40:54;;;;;;;16.52;12.23;;;;;;;17.62;79.27;97785.81;5104169;28;20062;-80
2021/07/09 06:43:20;;;;;;;14.98;11.55;;;;;;;17.69;78.96;97791.53;5104839;28;20457;-80
2021/07/09 06:45:45;;;;;;;12.52;10.82;;;;;;;17.75;78.74;97784.38;5110364;28;20031;-80
2021/07/09 06:48:10;;;;;;;12.68;11.10;;;;;;;17.88;78.31;97801.44;5092439;28;20024;-80
2021/07/09 06:50:36;;;;;;;11.75;10.55;;;;;;;17.89;78.13;97790.63;5103741;28;20035;-80
2021/07/09 06:53:05;;;;;;;17.50;11.18;;;;;;;17.86;77.79;97793.00;5072419;28;20031;-80
2021/07/09 06:55:31;;;;;;;11.98;10.77;;;;;;;17.92;77.44;97789.28;5093271;28;20655;-80
2021/07/09 06:57:57;;;;;;;10.43;9.32;;;;;;;18.04;77.86;97802.09;5091634;28;20023;-81
2021/07/09 07:00:22;;;;;;;14.13;11.10;;;;;;;18.08;77.18;97790.72;5091681;28;20031;-81
2021/07/09 07:02:48;;;;;;;11.27;10.18;;;;;;;18.21;76.80;97804.31;5107948;28;20484;-80
2021/07/09 07:05:15;;;;;;;13.45;11.10;;;;;;;18.22;76.47;97801.41;5092497;28;20023;-81
2021/07/09 07:07:40;;;;;;;10.38;9.27;;;;;;;18.30;76.34;97802.63;5063117;28;20028;-79
2021/07/09 07:10:07;;;;;;;11.85;9.90;;;;;;;18.35;75.89;97805.22;5072373;28;20024;-80
2021/07/09 07:12:33;;;;;;;11.65;10.45;;;;;;;18.52;75.60;97800.31;5073954;28;20028;-80
2021/07/09 07:14:59;;;;;;;11.20;10.10;;;;;;;18.55;75.17;97790.25;5069078;28;20371;-80
2021/07/09 07:17:24;;;;;;;12.00;10.43;;;;;;;18.78;74.78;97800.03;5070898;28;20111;-80
2021/07/09 07:19:49;;;;;;;12.77;10.93;;;;;;;18.80;74.33;97786.53;5089363;28;20498;-80
2021/07/09 07:22:15;;;;;;;10.65;9.60;;;;;;;18.90;74.35;97792.50;5089509;28;20654;-80
2021/07/09 07:24:40;;;;;;;14.50;10.73;;;;;;;19.03;73.55;97808.72;5050580;28;20528;-80
2021/07/09 07:27:06;;;;;;;11.05;9.75;;;;;;;19.06;73.38;97790.47;5072261;28;20038;-80
2021/07/09 07:29:32;;;;;;;10.15;8.95;;;;;;;19.23;72.79;97805.03;5074544;28;20036;-79
2021/07/09 07:31:57;;;;;;;10.75;9.63;;;;;;;19.28;72.89;97803.09;5034580;28;20454;-80
2021/07/09 07:34:26;;;;;;;10.70;9.60;;;;;;;19.36;71.52;97808.81;5073177;28;20060;-79
2021/07/09 07:36:52;;;;;;;10.52;9.45;;;;;;;19.52;71.59;97802.25;5053098;28;20432;-78
2021/07/09 07:39:17;;;;;;;9.85;8.50;;;;;;;19.59;71.28;97796.59;5057574;28;20036;-80
2021/07/09 07:41:43;;;;;;;11.93;9.43;;;;;;;19.68;71.02;97799.38;5073895;28;20032;-80
2021/07/09 07:44:09;;;;;;;9.38;8.45;;;;;;;19.74;71.25;97798.19;5056383;28;20040;-80
2021/07/09 07:46:34;;;;;;;10.55;9.25;;;;;;;19.80;70.81;97805.00;5056566;28;20028;-80
2021/07/09 07:49:00;;;;;;;9.27;8.35;;;;;;;19.92;70.66;97796.63;5068452;28;20024;-79
2021/07/09 07:51:25;;;;;;;8.60;7.70;;;;;;;20.01;69.90;97793.03;5072655;28;20037;-80
2021/07/09 07:53:52;;;;;;;8.90;8.07;;;;;;;20.15;69.40;97787.78;5071202;28;20024;-80
2021/07/09 07:56:18;;;;;;;9.90;8.93;;;;;;;20.33;69.53;97798.56;5054574;28;20028;-80
2021/07/09 07:58:44;;;;;;;11.07;7.97;;;;;;;20.59;68.79;97797.00;5046104;28;20020;-80
2021/07/09 08:01:10;;;;;;;9.98;8.82;;;;;;;20.80;68.79;97801.16;5032686;28;20055;-79
2021/07/09 08:03:35;;;;;;;9.77;8.77;;;;;;;20.97;67.54;97801.31;5039194;28;20177;-79
2021/07/09 08:06:02;;;;;;;11.60;9.95;;;;;;;21.51;64.28;97799.66;5056294;28;20457;-79
2021/07/09 08:08:28;;;;;;;11.55;9.10;;;;;;;21.72;64.97;97795.75;5039789;28;20620;-79
2021/07/09 08:10:54;;;;;;;10.52;9.43;;;;;;;21.82;64.15;97804.22;5074132;28;20065;-79
2021/07/09 08:13:19;;;;;;;9.20;8.27;;;;;;;22.12;62.54;97795.81;5055298;28;20031;-79
2021/07/09 08:15:44;;;;;;;12.48;10.88;;;;;;;21.99;61.41;97800.13;5073873;28;20031;-80
2021/07/09 08:18:10;;;;;;;9.80;8.68;;;;;;;21.78;62.43;97797.97;5055309;28;20035;-81
2021/07/09 08:20:35;;;;;;;15.02;12.00;;;;;;;21.62;61.85;97800.19;5038846;28;20036;-79
2021/07/09 08:23:02;;;;;;;12.98;11.02;;;;;;;21.44;61.68;97799.25;5044916;28;20024;-79
2021/07/09 08:25:27;;;;;;;13.73;11.73;;;;;;;21.48;61.53;97802.09;5052487;28;20028;-80
2021/07/09 08:27:56;;;;;;;13.60;11.20;;;;;;;21.79;60.54;97793.44;5056770;28;20101;-80
2021/07/09 08:30:24;;;;;;;13.40;11.95;;;;;;;21.81;64.87;97792.03;5040876;28;20111;-80
2021/07/09 08:32:49;;;;;;;13.15;10.88;;;;;;;22.22;62.19;97785.72;5067318;28;20103;-80
2021/07/09 08:35:14;;;;;;;11.35;10.13;;;;;;;22.47;61.08;97785.41;5055320;28;20043;-79
2021/07/09 08:37:41;;;;;;;10.77;9.68;;;;;;;22.56;60.49;97788.84;5053591;28;20028;-80
2021/07/09 08:40:07;;;;;;;11.95;10.85;;;;;;;22.46;58.30;97789.91;5038926;28;20038;-80
2021/07/09 08:42:33;;;;;;;10.60;9.50;;;;;;;22.38;59.15;97782.69;5053445;28;20222;-80
2021/07/09 08:44:59;;;;;;;9.90;8.98;;;;;;;22.19;60.72;97781.03;5056056;28;20132;-80
2021/07/09 08:47:28;;;;;;;10.98;9.88;;;;;;;22.06;59.95;97782.69;5056279;28;20027;-80
2021/07/09 08:49:54;;;;;;;10.73;9.73;;;;;;;22.34;59.91;97776.44;5072621;28;20039;-80
2021/07/09 08:52:19;;;;;;;9.68;8.68;;;;;;;22.26;60.70;97791.22;5056083;28;20035;-80
2021/07/09 08:54:44;;;;;;;9.88;8.82;;;;;;;22.40;58.38;97776.00;5090314;28;20040;-79
2021/07/09 08:57:10;;;;;;;9.70;8.70;;;;;;;22.50;57.22;97784.75;5056736;28;20016;-80
2021/07/09 08:59:35;;;;;;;9.95;8.90;;;;;;;22.70;56.44;97788.72;5053694;28;20032;-80
2021/07/09 09:02:03;;;;;;;10.18;9.18;;;;;;;23.03;55.69;97786.47;5054788;28;20028;-80
2021/07/09 09:04:37;;;;;;;12.95;11.55;;;;;;;23.14;54.91;97776.34;5055457;28;20037;-80
2021/07/09 09:07:11;;;;;;;11.50;9.75;;;;;;;23.52;55.08;97786.34;5053285;28;20036;-80
2021/07/09 09:09:37;;;;;;;;;;;;;;;23.56;55.86;97781.94;5071469;28;20036;-80
2021/07/09 09:12:16;;;;;;;8.45;7.65;;;;;;;24.01;54.15;97789.56;5054638;28;20361;-80
2021/07/09 09:14:49;;;;;;;9.32;8.43;;;;;;;23.96;56.20;97784.44;5055355;28;20635;-78
2021/07/09 09:17:31;;;;;;;10.93;9.93;;;;;;;23.83;58.73;97786.16;5071488;28;20459;-78
2021/07/09 09:20:16;;;;;;;8.82;8.02;;;;;;;24.10;54.77;97778.91;5052780;28;20098;-78
2021/07/09 09:22:48;;;;;;;9.93;8.77;;;;;;;24.04;53.51;97785.47;5067581;28;20028;-79
2021/07/09 09:25:14;;;;;;;10.68;9.73;;;;;;;23.66;56.80;97792.25;5067380;28;20026;-79
2021/07/09 09:27:40;;;;;;;8.80;8.00;;;;;;;23.60;56.73;97782.91;5065436;28;20032;-79
2021/07/09 09:30:13;;;;;;;9.90;8.98;;;;;;;23.41;55.60;97788.53;5038841;28;20043;-79
2021/07/09 09:32:47;;;;;;;8.98;8.07;;;;;;;23.14;56.79;97787.75;5055485;28;20035;-79
2021/07/09 09:35:19;;;;;;;8.85;7.80;;;;;;;23.03;56.67;97773.19;5069914;28;20454;-79
2021/07/09 09:37:57;;;;;;;8.05;7.20;;;;;;;22.90;57.63;97774.09;5054966;28;20510;-79
2021/07/09 09:40:24;;;;;;;8.77;7.93;;;;;;;23.01;57.20;97791.28;5054147;28;20136;-79
2021/07/09 09:42:50;;;;;;;8.02;7.25;;;;;;;23.05;57.01;97791.44;5071857;28;20607;-79
2021/07/09 09:45:24;;;;;;;7.93;7.00;;;;;;;22.95;57.57;97787.22;5051787;28;20108;-79
2021/07/09 09:47:49;;;;;;;7.68;6.97;;;;;;;23.10;57.21;97773.53;5052253;28;20162;-79
2021/07/09 09:50:20;;;;;;;8.00;7.30;;;;;;;23.03;57.03;97783.00;5034002;28;20115;-79
2021/07/09 09:53:04;;;;;;;8.90;8.05;;;;;;;22.95;55.28;97788.00;5053530;28;20368;-78
2021/07/09 09:55:32;;;;;;;7.50;6.70;;;;;;;23.05;54.77;97778.97;5071120;28;20069;-79
2021/07/09 09:58:29;;;;;;;7.38;6.60;;;;;;;22.95;56.08;97780.03;5062317;28;20281;-79
2021/07/09 10:00:54;;;;;;;7.63;7.03;;;;;;;23.12;57.42;97773.22;4984970;28;20534;-80
2021/07/09 10:03:20;;;;;;;7.78;6.68;;;;;;;22.87;58.39;97764.88;5053214;28;20020;-79
2021/07/09 10:05:48;;;;;;;9.27;8.45;;;;;;;22.77;57.31;97773.13;5051078;28;20126;-79
2021/07/09 10:08:15;;;;;;;8.32;7.43;;;;;;;22.65;56.80;97764.97;5052683;28;20566;-79
2021/07/09 10:10:42;;;;;;;6.97;6.35;;;;;;;22.51;57.96;97776.50;5054645;28;20627;-79
2021/07/09 10:13:13;;;;;;;7.65;6.85;;;;;;;22.20;59.43;97781.81;5054438;28;20478;-79
2021/07/09 10:15:43;;;;;;;9.00;8.20;;;;;;;22.00;60.57;97783.91;5071623;28;20028;-79
2021/07/09 10:18:13;;;;;;;10.13;8.38;;;;;;;21.97;61.84;97789.00;5053249;28;20077;-78
2021/07/09 10:20:43;;;;;;;9.60;8.60;;;;;;;21.95;62.94;97786.69;5054889;28;20035;-79
2021/07/09 10:23:10;;;;;;;8.75;7.85;;;;;;;22.13;61.43;97784.13;5070554;28;20028;-79
2021/07/09 10:25:37;;;;;;;9.07;8.13;;;;;;;22.13;60.69;97798.16;5054501;28;20280;-79
2021/07/09 10:28:11;;;;;;;11.73;10.50;;;;;;;21.88;62.36;97795.06;5050860;28;20386;-78
2021/07/09 10:30:42;;;;;;;14.68;11.70;;;;;;;21.78;61.42;97795.31;5071586;28;20036;-78
2021/07/09 10:33:27;;;;;;;13.05;11.70;;;;;;;21.48;62.64;97800.22;5067593;28;20124;-78
2021/07/09 10:35:53;;;;;;;13.05;11.73;;;;;;;21.53;62.93;97799.34;5039607;28;20083;-78
2021/07/09 10:38:21;;;;;;;13.27;11.88;;;;;;;21.49;63.60;97796.50;5071481;28;20505;-78
2021/07/09 10:40:46;;;;;;;17.77;14.95;;;;;;;21.36;65.76;97797.31;5038192;28;20040;-78
2021/07/09 10:43:14;;;;;;;15.40;13.75;;;;;;;21.30;66.24;97790.53;5052570;28;20087;-78
2021/07/09 10:45:40;;;;;;;14.02;12.48;;;;;;;21.44;64.62;97790.53;5037821;28;20028;-78
2021/07/09 10:48:15;;;;;;;15.55;13.35;;;;;;;21.50;67.26;97795.41;5070220;28;20027;-79
2021/07/09 10:50:42;;;;;;;;;;;;;;;21.41;67.07;97791.91;5071356;28;20127;-78
2021/07/09 10:53:10;;;;;;;13.50;11.43;;;;;;;21.81;66.32;97793.91;5070815;28;20105;-79
2021/07/09 10:56:00;;;;;;;16.65;15.02;;;;;;;22.06;67.97;97785.34;5064801;28;20425;-78
2021/07/09 10:58:26;;;;;;;17.23;15.15;;;;;;;22.84;67.55;97783.28;5070893;28;20082;-79
2021/07/09 11:01:05;;;;;;;17.52;15.73;;;;;;;23.26;67.56;97781.03;5070849;28;20016;-78
2021/07/09 11:03:46;;;;;;;13.60;12.30;;;;;;;23.88;61.46;97783.34;5063540;28;20024;-78
2021/07/09 11:06:17;;;;;;;10.93;9.82;;;;;;;24.25;60.41;97782.94;5037743;28;20425;-79
2021/07/09 11:08:50;;;;;;;12.02;10.93;;;;;;;24.51;59.00;97782.03;5056990;28;20525;-79
2021/07/09 11:11:17;;;;;;;10.50;9.50;;;;;;;24.60;57.21;97782.78;5075892;28;20413;-79
2021/07/09 11:13:51;;;;;;;9.63;8.63;;;;;;;24.58;55.83;97769.81;5057328;28;20030;-78
2021/07/09 11:16:36;;;;;;;12.07;10.68;;;;;;;24.49;58.38;97771.72;5058404;28;20097;-79
2021/07/09 11:19:04;;;;;;;11.80;10.32;;;;;;;24.68;59.07;97780.09;5041508;28;20526;-79
2021/07/09 11:21:30;;;;;;;9.82;8.82;;;;;;;24.68;56.35;97781.97;5074950;28;20028;-79
2021/07/09 11:24:00;;;;;;;9.52;8.07;;;;;;;24.37;55.83;97779.56;5092409;28;20395;-78
2021/07/09 11:26:27;;;;;;;8.52;7.72;;;;;;;24.28;55.59;97790.25;5092766;28;20111;-79
2021/07/09 11:28:52;;;;;;;8.10;7.03;;;;;;;24.05;53.43;97776.41;5069353;28;20035;-78
2021/07/09 11:31:30;;;;;;;9.70;7.70;;;;;;;23.83;55.37;97772.09;5054910;28;20520;-79
2021/07/09 11:34:06;;;;;;;6.78;6.25;;;;;;;23.64;57.26;97770.53;5068877;28;20036;-79
2021/07/09 11:36:43;;;;;;;7.78;7.07;;;;;;;23.57;54.42;97770.22;5057855;28;20024;-79
2021/07/09 11:39:14;;;;;;;7.68;6.93;;;;;;;23.84;53.63;97763.03;5052258;28;20054;-79
2021/07/09 11:42:25;;;;;;;8.23;7.43;;;;;;;23.52;55.26;97759.75;5074168;28;20399;-79
2021/07/09 11:44:59;;;;;;;7.57;6.70;;;;;;;23.73;53.88;97751.91;5052759;28;20060;-79
2021/07/09 11:47:32;;;;;;;6.13;5.53;;;;;;;23.62;56.00;97740.81;5074258;28;20142;-79
2021/07/09 11:50:00;;;;;;;7.70;6.93;;;;;;;23.54;51.75;97745.06;5057191;28;20036;-79
2021/07/09 11:52:30;;;;;;;7.45;6.75;;;;;;;23.55;50.81;97738.66;5073810;28;20063;-79
2021/07/09 11:54:57;;;;;;;8.48;6.78;;;;;;;23.53;53.63;97732.09;5040441;28;20115;-79
2021/07/09 11:57:26;;;;;;;7.07;6.22;;;;;;;23.46;51.65;97735.22;5068537;28;20416;-79
2021/07/09 11:59:53;;;;;;;7.63;6.93;;;;;;;23.59;53.90;97732.69;5053838;28;20185;-79
2021/07/09 12:02:22;;;;;;;6.28;5.60;;;;;;;23.63;51.56;97745.06;5037594;28;20021;-79
2021/07/09 12:04:52;;;;;;;7.40;6.53;;;;;;;23.63;52.29;97738.94;5088170;28;20110;-79
2021/07/09 12:07:34;;;;;;;7.90;7.18;;;;;;;23.47;51.08;97730.69;5072224;28;20110;-79
2021/07/09 12:10:15;;;;;;;7.82;6.47;;;;;;;23.59;54.62;97727.38;5065948;28;20036;-79
2021/07/09 12:13:01;;;;;;;6.78;6.18;;;;;;;23.68;52.03;97731.59;5068592;28;20466;-79
2021/07/09 12:15:34;;;;;;;6.00;5.40;;;;;;;24.06;51.00;97719.44;5057130;28;20052;-78
2021/07/09 12:18:01;;;;;;;6.30;5.80;;;;;;;24.09;54.04;97719.59;5071980;28;20032;-79
2021/07/09 12:20:28;;;;;;;6.43;5.80;;;;;;;24.08;53.89;97717.25;5055903;28;20474;-78
2021/07/09 12:23:00;;;;;;;6.10;5.63;;;;;;;24.00;53.75;97708.19;5053108;28;20032;-78
2021/07/09 12:25:31;;;;;;;6.18;5.57;;;;;;;23.81;53.15;97734.38;5067883;28;20029;-79
2021/07/09 12:28:01;;;;;;;6.53;5.93;;;;;;;23.11;54.93;97745.84;5056007;28;20039;-79
2021/07/09 12:30:33;;;;;;;7.18;6.47;;;;;;;22.76;59.18;97750.34;5039164;28;20039;-78
2021/07/09 12:33:02;;;;;;;8.32;7.50;;;;;;;22.54;60.33;97749.34;5056618;28;20374;-78
2021/07/09 12:35:30;;;;;;;8.95;8.13;;;;;;;22.25;62.25;97755.94;5056409;28;20051;-78
2021/07/09 12:38:00;;;;;;;9.00;8.20;;;;;;;22.00;63.89;97754.75;5074691;28;20035;-81
2021/07/09 12:40:40;;;;;;;10.52;9.52;;;;;;;21.69;65.90;97757.34;5047656;28;20115;-81
2021/07/09 19:48:28;;;;;;;16.38;13.70;;;;;;;17.68;83.19;97770.75;5073305;27;1948997;-79
2021/07/09 19:50:54;;;;;;;19.02;15.73;;;;;;;18.29;80.43;97761.53;5082977;28;20043;-79
2021/07/09 19:53:20;;;;;;;15.25;13.48;;;;;;;18.52;79.29;97758.13;5076227;28;20019;-79
2021/07/09 19:55:46;;;;;;;16.80;14.23;;;;;;;18.77;78.08;97766.00;5060202;28;20625;-80
2021/07/09 19:58:12;;;;;;;14.77;13.23;;;;;;;18.84;77.83;97761.97;5089015;28;20115;-80
2021/07/09 20:00:38;;;;;;;17.55;13.75;;;;;;;18.90;77.34;97771.41;5094386;28;20032;-80
2021/07/09 20:03:04;;;;;;;15.20;12.68;;;;;;;18.96;77.33;97772.13;5081642;28;20458;-79
2021/07/09 20:05:29;;;;;;;16.88;13.23;;;;;;;18.96;76.99;97774.75;5105943;28;20030;-80
2021/07/09 20:07:55;;;;;;;15.20;12.77;;;;;;;19.01;77.07;97773.91;5107601;28;20427;-80
2021/07/09 20:10:22;;;;;;;14.63;12.70;;;;;;;19.01;76.94;97772.03;5085716;28;20039;-79
2021/07/09 20:12:52;;;;;;;14.80;12.60;;;;;;;19.08;76.85;97784.91;5103129;28;20024;-79
2021/07/09 20:15:19;;;;;;;14.45;12.13;;;;;;;19.05;76.75;97775.69;5086569;28;20024;-80
2021/07/09 20:17:45;;;;;;;13.63;11.98;;;;;;;19.08;76.50;97774.34;5103989;28;20038;-80
2021/07/09 20:20:11;;;;;;;13.75;12.35;;;;;;;19.07;76.58;97770.91;5113593;28;20031;-80
2021/07/09 20:22:36;;;;;;;14.70;11.98;;;;;;;19.19;76.12;97778.41;5108159;28;20034;-80
2021/07/09 20:25:03;;;;;;;12.55;11.10;;;;;;;19.10;76.28;97774.84;5101461;28;20370;-80
2021/07/09 20:27:28;;;;;;;13.05;11.70;;;;;;;19.08;76.09;97777.75;5094769;28;20559;-79
2021/07/09 20:29:54;;;;;;;15.07;11.75;;;;;;;19.16;75.81;97778.97;5123213;27;20055;-80
2021/07/09 20:32:19;;;;;;;14.25;11.80;;;;;;;19.08;75.50;97777.75;5098510;28;20035;-80
2021/07/09 20:34:45;;;;;;;14.23;12.70;;;;;;;19.17;75.68;97775.25;5113088;28;20039;-80
2021/07/09 20:37:10;;;;;;;12.57;11.23;;;;;;;19.16;75.68;97776.34;5105835;28;20023;-80
2021/07/09 20:39:35;;;;;;;13.15;11.85;;;;;;;19.23;75.69;97776.00;5106223;28;20036;-79
2021/07/09 20:42:01;;;;;;;12.40;11.18;;;;;;;19.15;75.75;97771.34;5101088;28;20032;-80
2021/07/09 20:44:26;;;;;;;14.27;11.50;;;;;;;19.09;76.04;97768.00;5087694;28;20088;-79
2021/07/09 20:46:51;;;;;;;14.27;11.40;;;;;;;19.09;75.85;97762.72;5098726;28;20042;-79
2021/07/09 20:49:17;;;;;;;12.38;11.10;;;;;;;19.10;75.40;97766.91;5086823;28;20168;-79
2021/07/09 20:51:42;;;;;;;20.70;11.55;;;;;;;19.16;75.23;97764.97;5094604;28;20047;-80
2021/07/09 20:54:08;;;;;;;14.43;11.55;;;;;;;19.13;75.34;97774.28;5091725;28;20706;-80
2021/07/09 20:56:33;;;;;;;12.73;11.43;;;;;;;19.03;75.51;97763.84;5108535;28;20039;-78
2021/07/09 20:58:59;;;;;;;13.25;11.55;;;;;;;19.03;75.73;97756.72;5109439;28;20035;-79
2021/07/09 21:01:24;;;;;;;14.38;11.93;;;;;;;19.03;75.77;97758.56;5093309;28;20060;-79
2021/07/09 21:03:52;;;;;;;13.20;10.70;;;;;;;19.03;75.91;97755.94;5102914;28;20180;-78
2021/07/09 21:06:17;;;;;;;12.77;11.32;;;;;;;19.03;75.82;97756.72;5099237;28;20101;-78
2021/07/09 21:08:43;;;;;;;12.35;11.05;;;;;;;19.04;75.46;97760.94;5110964;28;20569;-78
2021/07/09 21:11:08;;;;;;;13.38;11.43;;;;;;;18.99;75.59;97754.94;5083321;28;20046;-78
2021/07/09 21:13:36;;;;;;;12.43;11.07;;;;;;;18.98;75.68;97750.72;5099710;28;20035;-78
2021/07/09 21:16:03;;;;;;;11.70;10.43;;;;;;;18.89;75.81;97756.63;5094157;28;20239;-78
2021/07/09 21:18:29;;;;;;;12.70;11.40;;;;;;;18.93;75.94;97742.88;5087349;28;20462;-79
2021/07/09 21:20:55;;;;;;;12.18;10.75;;;;;;;18.92;75.90;97752.66;5087617;28;20030;-79
2021/07/09 21:23:21;;;;;;;11.63;10.43;;;;;;;18.86;75.51;97738.72;5076900;28;20030;-78
2021/07/09 21:25:46;;;;;;;12.90;11.18;;;;;;;18.92;75.43;97739.47;5060129;28;20114;-79
2021/07/09 21:28:12;;;;;;;11.98;10.60;;;;;;;18.79;75.50;97743.53;5089526;28;20029;-78
2021/07/09 21:30:37;;;;;;;12.50;11.20;;;;;;;18.71;75.40;97741.53;5069722;28;20036;-79
2021/07/09 21:33:04;;;;;;;12.10;10.82;;;;;;;18.69;75.56;97735.75;5078224;28;20111;-78
2021/07/09 21:35:30;;;;;;;12.40;10.93;;;;;;;18.66;75.24;97750.31;5084585;28;20122;-78
2021/07/09 21:37:55;;;;;;;12.95;11.00;;;;;;;18.59;75.36;97747.19;5107922;28;20110;-78
2021/07/09 21:40:21;;;;;;;13.88;10.93;;;;;;;18.59;75.83;97746.44;5110376;28;20047;-78
2021/07/09 21:42:47;;;;;;;12.32;10.18;;;;;;;18.50;75.81;97736.50;5082159;28;20533;-78
2021/07/09 21:45:13;;;;;;;12.95;11.43;;;;;;;18.51;75.74;97732.03;5083589;28;20028;-78
2021/07/09 21:47:40;;;;;;;12.70;11.32;;;;;;;18.53;75.46;97750.97;5080449;28;20123;-79
2021/07/09 21:50:06;;;;;;;13.73;11.27;;;;;;;18.49;75.80;97740.22;5081140;28;20554;-78
2021/07/09 21:52:32;;;;;;;13.98;11.07;;;;;;;18.45;75.83;97736.56;5093131;28;20031;-78
2021/07/09 21:54:58;;;;;;;11.63;10.43;;;;;;;18.41;75.56;97735.56;5069882;28;20032;-78
2021/07/09 21:57:24;;;;;;;12.20;10.85;;;;;;;18.46;75.86;97738.13;5076077;28;20023;-78
2021/07/09 21:59:49;;;;;;;11.55;10.38;;;;;;;18.53;75.61;97741.22;5089602;28;20671;-78
2021/07/09 22:02:14;;;;;;;12.60;10.98;;;;;;;18.53;75.50;97735.16;5110844;28;20116;-78
2021/07/09 22:04:40;;;;;;;11.82;10.68;;;;;;;18.51;75.20;97726.75;5097474;28;20035;-78
2021/07/09 22:07:05;;;;;;;12.18;10.95;;;;;;;18.59;75.31;97741.16;5092159;28;20450;-78
2021/07/09 22:09:31;;;;;;;13.10;11.32;;;;;;;18.59;75.49;97746.44;5092528;28;20028;-78
2021/07/09 22:11:59;;;;;;;12.70;10.65;;;;;;;18.46;75.59;97732.09;5084791;28;20037;-78
2021/07/09 22:14:24;;;;;;;13.70;11.80;;;;;;;18.52;75.52;97736.22;5108764;28;20031;-78
2021/07/09 22:16:50;;;;;;;11.82;10.43;;;;;;;18.55;75.44;97740.94;5084740;28;20501;-78
2021/07/09 22:19:15;;;;;;;12.65;10.80;;;;;;;18.49;75.52;97740.22;5076580;28;20110;-79
2021/07/09 22:21:41;;;;;;;12.73;10.65;;;;;;;18.52;75.50;97738.84;5086374;28;20027;-78
2021/07/09 22:24:26;;;;;;;13.32;10.02;;;;;;;18.49;75.11;97745.50;5096535;28;20081;-78
2021/07/09 22:26:51;;;;;;;11.75;10.10;;;;;;;18.52;74.97;97747.56;5093022;28;20421;-78
2021/07/09 22:29:16;;;;;;;10.95;9.85;;;;;;;18.53;74.83;97751.75;5093081;28;20027;-79
2021/07/09 22:31:42;;;;;;;12.57;10.30;;;;;;;18.48;75.21;97746.53;5059956;28;20885;-79
2021/07/09 22:34:07;;;;;;;10.52;9.40;;;;;;;18.47;75.16;97745.00;5077020;28;20032;-78
2021/07/09 22:36:33;;;;;;;10.85;9.52;;;;;;;18.42;75.08;97739.78;5087389;28;20577;-79
2021/07/09 22:38:58;;;;;;;12.05;10.60;;;;;;;18.37;75.17;97723.22;5088681;28;20023;-79
2021/07/09 22:41:23;;;;;;;12.50;10.75;;;;;;;18.39;74.82;97731.66;5081048;28;20073;-78
2021/07/09 22:43:49;;;;;;;11.25;9.50;;;;;;;18.37;74.73;97731.13;5098950;28;20031;-78
2021/07/09 22:46:14;;;;;;;10.50;9.40;;;;;;;18.26;74.77;97731.22;5068735;28;20066;-78
2021/07/09 22:48:39;;;;;;;11.13;10.00;;;;;;;18.23;74.54;97736.28;5098100;28;20135;-78
2021/07/09 22:51:05;;;;;;;11.23;10.07;;;;;;;18.19;74.83;97732.66;5090694;28;20620;-78
2021/07/09 22:53:30;;;;;;;11.82;10.63;;;;;;;18.12;74.65;97733.75;5091692;28;20555;-78
2021/07/09 22:55:56;;;;;;;13.15;10.43;;;;;;;18.07;74.86;97731.16;5088656;28;20077;-79
2021/07/09 22:58:21;;;;;;;11.98;10.32;;;;;;;18.08;74.93;97735.38;5093665;28;20055;-78
2021/07/09 23:00:47;;;;;;;12.20;10.15;;;;;;;17.99;74.74;97723.88;5081239;28;20549;-78
2021/07/09 23:03:14;;;;;;;10.50;9.40;;;;;;;18.06;74.74;97734.88;5099564;28;20036;-78
2021/07/09 23:05:39;;;;;;;11.23;9.48;;;;;;;18.00;74.75;97722.81;5086784;28;20390;-78
2021/07/09 23:08:05;;;;;;;11.70;9.60;;;;;;;17.94;74.63;97719.44;5090127;28;20024;-78
2021/07/09 23:10:31;;;;;;;12.63;9.82;;;;;;;17.99;74.67;97715.19;5070648;28;20168;-78
2021/07/09 23:12:56;;;;;;;11.15;9.90;;;;;;;17.92;74.56;97715.50;5084373;28;20072;-78
2021/07/09 23:15:24;;;;;;;11.52;9.82;;;;;;;17.87;74.20;97712.91;5083574;28;20028;-78
2021/07/09 23:17:49;;;;;;;12.82;10.07;;;;;;;17.84;74.47;97714.25;5098792;28;20560;-79
2021/07/09 23:20:16;;;;;;;11.55;9.77;;;;;;;17.78;74.64;97705.59;5055405;28;20032;-78
2021/07/09 23:22:42;;;;;;;11.70;9.18;;;;;;;17.76;74.45;97707.72;5092634;28;20115;-77
2021/07/09 23:25:10;;;;;;;10.18;8.70;;;;;;;17.66;74.27;97704.41;5054732;28;20476;-78
2021/07/09 23:27:37;;;;;;;11.25;10.15;;;;;;;17.68;74.19;97705.69;5072305;28;20019;-79
2021/07/09 23:30:05;;;;;;;11.50;10.32;;;;;;;17.65;74.32;97695.72;5100110;28;20573;-78
2021/07/09 23:32:30;;;;;;;12.43;10.23;;;;;;;17.57;74.43;97696.31;5081390;28;20094;-79
2021/07/09 23:34:59;;;;;;;12.27;9.90;;;;;;;17.56;74.90;97692.09;5084301;28;20028;-78
2021/07/09 23:37:29;;;;;;;11.43;10.30;;;;;;;17.37;74.65;97695.41;5074276;28;20033;-79
2021/07/09 23:39:56;;;;;;;11.80;9.98;;;;;;;17.42;74.38;97695.38;5080605;28;20028;-78
2021/07/09 23:42:22;;;;;;;11.05;9.93;;;;;;;17.42;74.67;97692.72;5063457;28;20027;-78
2021/07/09 23:44:50;;;;;;;11.43;10.05;;;;;;;17.40;74.45;97696.72;5080806;28;20032;-78
2021/07/09 23:47:17;;;;;;;12.38;10.77;;;;;;;17.32;74.60;97684.13;5108505;28;20120;-79
2021/07/09 23:49:43;;;;;;;11.07;9.85;;;;;;;17.35;74.75;97686.22;5074753;28;20154;-78
2021/07/09 23:52:08;;;;;;;11.07;9.98;;;;;;;17.34;74.28;97687.28;5108186;28;20107;-78
2021/07/09 23:54:34;;;;;;;9.80;8.80;;;;;;;17.39;74.10;97685.41;5108083;28;20059;-78
2021/07/09 23:56:59;;;;;;;10.07;8.43;;;;;;;17.37;74.12;97684.09;5063244;28;20090;-79
2021/07/09 23:59:24;;;;;;;9.07;8.18;;;;;;;17.30;73.66;97686.25;5080145;28;20382;-78
